KRTN

Raton Municipal / Crews Field Airport

Raton, New Mexico, USA
METAR KRTN 172053Z AUTO 20005KT 10SM -RA SCT008 BKN016 OVC036 06/04 A3050 RMK AO2 SLP307 P0002 60002 T00560039 56010
Observed Flight Rules
Oct-17 @ 20:53 UTC (32 minutes ago) Marginal Visual Flight Rules
Wind Visibility Clouds Conditions
200° at 5 knots 10 miles
  • Scattered at 800' AGL
  • Broken at 1,600' AGL
  • Overcast at 3,600' AGL
  • Light Rain
Temperatures Readings Precipitation
Current 6°C / 43°F
Dewpoint 4°C / 39°F
Humidity 87%
Altimeter 30.5" Hg
Pressure 1030.7 hPa
Elevation 1936
Current Rain 0.02
METAR KRTN 172053Z AUTO 20005KT 10SM -RA SCT008 BKN016 OVC036 06/04 A3050 RMK AO2 SLP307 P0002 60002 T00560039 56010
Observed Flight Rules
Oct-17 @ 20:53 UTC
(32 minutes ago)
MVFR
Wind Visibility
200° at 5 knots 10 miles
Clouds
  • Scattered at 800' AGL
  • Broken at 1,600' AGL
  • Overcast at 3,600' AGL
Conditions
  • Light Rain
Temperature Dewpoint
6°C / 43°F 4°C / 39°F
Humidity Altimeter Pressure
87% 30.5" Hg 1030.7 hPa
Current Rain
0.02